createdAt,value
2024-03-16T00:02:22.444Z,40.20
2024-03-16T00:04:49.360Z,44.10
2024-03-16T00:07:16.358Z,36.50
2024-03-16T00:09:43.605Z,46.50
2024-03-16T00:12:10.499Z,54.50
2024-03-16T00:14:37.985Z,52.50
2024-03-16T00:17:06.152Z,51.90
2024-03-16T00:19:33.176Z,34.20
2024-03-16T00:22:00.284Z,33.20
2024-03-16T00:24:28.047Z,35.00
2024-03-16T00:29:33.244Z,38.40
2024-03-16T00:32:00.261Z,41.60
2024-03-16T00:34:27.177Z,36.90
2024-03-16T00:36:54.156Z,37.40
2024-03-16T00:39:25.014Z,40.00
2024-03-16T00:41:52.335Z,41.00
2024-03-16T00:44:19.589Z,39.30
2024-03-16T00:46:46.825Z,37.70
2024-03-16T00:49:14.073Z,37.40
2024-03-16T00:51:42.415Z,39.80
2024-03-16T00:54:12.479Z,28.90
2024-03-16T00:56:40.144Z,30.30
2024-03-16T00:59:07.484Z,31.50
2024-03-16T01:01:38.067Z,36.50
2024-03-16T01:04:05.828Z,38.40
2024-03-16T01:06:33.290Z,35.00
2024-03-16T01:09:00.367Z,43.20
2024-03-16T01:11:27.547Z,37.30
2024-03-16T01:13:54.619Z,38.40
2024-03-16T01:16:21.580Z,38.90
2024-03-16T01:18:48.991Z,39.80
2024-03-16T01:21:16.355Z,39.00
2024-03-16T01:23:43.315Z,40.50
2024-03-16T01:26:11.013Z,37.40
2024-03-16T01:28:38.055Z,29.70
2024-03-16T01:31:05.111Z,33.40
2024-03-16T01:33:32.339Z,33.20
2024-03-16T01:35:59.779Z,49.60
2024-03-16T01:38:26.627Z,46.50
2024-03-16T01:40:53.979Z,51.30
2024-03-16T01:43:21.121Z,47.30
2024-03-16T01:45:48.294Z,45.10
2024-03-16T01:48:15.825Z,39.70
2024-03-16T01:50:42.752Z,47.50
2024-03-16T01:53:12.642Z,43.30
2024-03-16T01:55:39.855Z,42.20
2024-03-16T01:58:09.827Z,43.50
2024-03-16T02:00:37.234Z,31.10
2024-03-16T02:03:04.642Z,37.10
2024-03-16T02:05:32.614Z,35.90
2024-03-16T02:08:01.150Z,38.50
2024-03-16T02:10:28.836Z,43.10
2024-03-16T02:12:56.011Z,37.30
2024-03-16T02:15:23.739Z,38.90
2024-03-16T02:17:51.616Z,37.50
2024-03-16T02:20:20.997Z,37.60
2024-03-16T02:25:16.164Z,40.10
2024-03-16T02:27:45.019Z,41.60
2024-03-16T02:30:12.151Z,42.60
2024-03-16T02:32:39.904Z,32.10
2024-03-16T02:35:09.491Z,34.90
2024-03-16T02:37:37.242Z,29.30
2024-03-16T02:40:08.457Z,39.30
2024-03-16T02:42:36.637Z,40.20
2024-03-16T02:45:04.535Z,40.80
2024-03-16T02:47:31.975Z,40.20
2024-03-16T02:49:59.444Z,39.70
2024-03-16T02:52:26.494Z,43.50
2024-03-16T02:54:53.513Z,43.20
2024-03-16T02:57:20.497Z,48.80
2024-03-16T02:59:47.311Z,41.80
2024-03-16T03:02:14.519Z,40.20
2024-03-16T03:04:41.655Z,29.10
2024-03-16T03:07:08.822Z,31.30
2024-03-16T03:09:38.587Z,35.60
2024-03-16T03:12:06.083Z,35.20
2024-03-16T03:14:33.321Z,34.90
2024-03-16T03:17:00.226Z,37.90
2024-03-16T03:19:27.155Z,37.20
2024-03-16T03:21:54.095Z,41.80
2024-03-16T03:24:21.288Z,37.80
2024-03-16T03:26:48.104Z,37.90
2024-03-16T03:29:15.044Z,42.50
2024-03-16T03:31:42.299Z,43.50
2024-03-16T03:34:09.448Z,32.50
2024-03-16T03:36:36.941Z,32.80
2024-03-16T03:39:04.472Z,33.70
2024-03-16T03:41:31.430Z,40.10
2024-03-16T03:44:10.135Z,38.20
2024-03-16T03:46:52.214Z,37.50
2024-03-16T03:49:30.829Z,39.60
2024-03-16T03:51:58.744Z,38.50
2024-03-16T03:54:25.859Z,44.00
2024-03-16T03:56:52.930Z,43.80
2024-03-16T03:59:20.462Z,41.10
2024-03-16T04:01:48.136Z,35.50
2024-03-16T04:04:15.229Z,36.50
2024-03-16T04:06:46.140Z,36.90
2024-03-16T04:09:13.788Z,36.80
2024-03-16T04:11:43.482Z,41.00
2024-03-16T04:14:10.675Z,43.60
2024-03-16T04:16:37.540Z,43.40
2024-03-16T04:19:04.746Z,44.20
2024-03-16T04:21:32.205Z,39.10
2024-03-16T04:23:59.229Z,43.10
2024-03-16T04:26:26.514Z,36.00
2024-03-16T04:28:53.624Z,30.10
2024-03-16T04:31:20.421Z,35.20
2024-03-16T04:33:47.336Z,32.20
2024-03-16T04:36:15.278Z,37.30
2024-03-16T04:38:42.574Z,36.00
2024-03-16T04:41:10.237Z,33.50
2024-03-16T04:43:37.296Z,39.50
2024-03-16T04:46:05.722Z,37.70
2024-03-16T04:48:32.918Z,34.30
2024-03-16T04:50:59.929Z,36.80
2024-03-16T04:53:27.379Z,35.70
2024-03-16T04:55:54.245Z,27.60
2024-03-16T04:58:21.357Z,30.30
2024-03-16T05:00:48.566Z,33.10
2024-03-16T05:03:15.466Z,38.50
2024-03-16T05:05:42.319Z,39.50
2024-03-16T05:08:09.301Z,39.30
2024-03-16T05:10:36.396Z,38.70
2024-03-16T05:13:03.764Z,37.30
2024-03-16T05:15:31.457Z,40.40
2024-03-16T05:17:59.358Z,32.40
2024-03-16T05:20:27.344Z,33.90
2024-03-16T05:22:54.380Z,27.40
2024-03-16T05:25:21.324Z,25.50
2024-03-16T05:27:48.487Z,29.10
2024-03-16T05:30:16.676Z,32.90
2024-03-16T05:32:44.233Z,33.10
2024-03-16T05:35:12.056Z,32.80
2024-03-16T05:37:39.682Z,32.70
2024-03-16T05:40:07.621Z,34.90
2024-03-16T05:42:38.729Z,35.10
2024-03-16T05:45:08.164Z,34.90
2024-03-16T05:47:35.579Z,37.80
2024-03-16T05:50:02.697Z,31.20
2024-03-16T05:52:30.017Z,25.80
2024-03-16T05:54:57.066Z,31.40
2024-03-16T05:57:24.478Z,29.20
2024-03-16T05:59:52.888Z,35.60
2024-03-16T06:02:19.717Z,31.70
2024-03-16T06:04:47.385Z,34.00
2024-03-16T06:07:14.405Z,32.60
2024-03-16T06:09:41.495Z,39.10
2024-03-16T06:12:08.527Z,33.20
2024-03-16T06:14:35.591Z,30.80
2024-03-16T06:17:02.521Z,24.10
2024-03-16T06:19:29.833Z,25.50
2024-03-16T06:21:56.839Z,29.20
2024-03-16T06:24:24.798Z,29.50
2024-03-16T06:27:01.847Z,28.80
2024-03-16T06:29:29.107Z,31.30
2024-03-16T06:32:06.514Z,35.40
2024-03-16T06:34:37.484Z,31.40
2024-03-16T06:37:05.312Z,36.60
2024-03-16T06:39:32.684Z,37.20
2024-03-16T06:41:59.659Z,30.30
2024-03-16T06:44:26.582Z,31.40
2024-03-16T06:46:53.838Z,26.20
2024-03-16T06:49:20.767Z,27.60
2024-03-16T06:51:47.783Z,24.50
2024-03-16T06:54:14.799Z,25.90
2024-03-16T06:56:41.772Z,25.40
2024-03-16T06:59:08.660Z,28.90
2024-03-16T07:01:35.891Z,27.80
2024-03-16T07:04:03.037Z,27.00
2024-03-16T07:06:30.901Z,29.00
2024-03-16T07:09:01.308Z,29.20
2024-03-16T07:11:28.946Z,28.00
2024-03-16T07:13:56.140Z,28.80
2024-03-16T07:16:23.172Z,28.00
2024-03-16T07:18:50.192Z,22.90
2024-03-16T07:21:20.563Z,25.70
2024-03-16T07:23:50.284Z,23.70
2024-03-16T07:26:17.451Z,23.50
2024-03-16T07:28:44.744Z,26.50
2024-03-16T07:31:12.432Z,27.30
2024-03-16T07:33:39.773Z,28.10
2024-03-16T07:36:07.353Z,25.20
2024-03-16T07:38:34.495Z,24.90
2024-03-16T07:41:01.880Z,21.10
2024-03-16T07:43:28.744Z,23.20
2024-03-16T07:45:55.777Z,25.50
2024-03-16T07:48:23.599Z,26.60
2024-03-16T07:50:50.618Z,25.50
2024-03-16T07:53:18.063Z,20.00
2024-03-16T07:55:45.148Z,22.20
2024-03-16T07:58:12.713Z,24.50
2024-03-16T08:00:39.807Z,16.80
2024-03-16T08:03:07.007Z,17.80
2024-03-16T08:05:33.947Z,21.50
2024-03-16T08:08:01.116Z,20.00
2024-03-16T08:10:29.655Z,22.90
2024-03-16T08:12:56.836Z,19.60
2024-03-16T08:15:23.745Z,20.60
2024-03-16T08:17:55.663Z,26.90
2024-03-16T08:20:22.701Z,27.40
2024-03-16T08:22:54.849Z,21.10
2024-03-16T08:25:22.556Z,26.20
2024-03-16T08:27:49.699Z,22.80
2024-03-16T08:30:16.731Z,23.00
2024-03-16T08:32:43.801Z,22.50
2024-03-16T08:35:10.876Z,26.60
2024-03-16T08:37:37.825Z,23.40
2024-03-16T08:40:13.778Z,21.00
2024-03-16T08:42:42.278Z,23.80
2024-03-16T08:45:10.885Z,22.30
2024-03-16T08:47:37.963Z,25.10
2024-03-16T08:50:06.381Z,24.80
2024-03-16T08:52:37.364Z,25.80
2024-03-16T08:55:05.658Z,20.50
